Time,TemperatureF,DewpointF,PressureIn,WindDirection,WindDirectionDegrees,WindSpeedMPH,WindSpeedGustMPH,Humidity,HourlyPrecipIn,Conditions,Clouds,dailyrainin,SoftwareType,DateUTC
2013-03-04 00:00:00,15.7,12.5,30.12,NW,312,0.0,0.0,87,0.00,,,0.00,Wunderground v.1.15,2013-03-04 05:00:00,
2013-03-04 00:01:00,15.7,12.5,30.12,NW,311,0.0,0.0,87,0.00,,,0.00,Wunderground v.1.15,2013-03-04 05:01:00,
2013-03-04 00:03:00,15.8,12.6,30.12,NW,311,0.0,0.0,87,0.00,,,0.00,Wunderground v.1.15,2013-03-04 05:03:00,
2013-03-04 00:05:00,15.8,12.6,30.12,NW,312,0.0,0.0,87,0.00,,,0.00,Wunderground v.1.15,2013-03-04 05:05:00,
2013-03-04 00:11:00,15.9,12.5,30.12,NW,312,0.0,0.0,86,0.00,,,0.00,Wunderground v.1.15,2013-03-04 05:11:00,
2013-03-04 00:16:00,16.0,12.6,30.13,NW,311,0.0,0.0,86,0.00,,,0.00,Wunderground v.1.15,2013-03-04 05:16:00,
2013-03-04 00:24:00,16.3,12.8,30.13,NW,312,0.0,1.0,86,0.00,,,0.00,Wunderground v.1.15,2013-03-04 05:24:00,
2013-03-04 00:30:00,16.6,13.1,30.13,NW,312,0.0,0.0,86,0.00,,,0.00,Wunderground v.1.15,2013-03-04 05:30:00,
2013-03-04 00:35:00,16.7,13.0,30.13,NW,312,0.0,0.0,85,0.00,,,0.00,Wunderground v.1.15,2013-03-04 05:35:00,
2013-03-04 00:40:00,16.7,13.0,30.13,NW,312,0.0,0.0,85,0.00,,,0.00,Wunderground v.1.15,2013-03-04 05:40:00,
2013-03-04 00:46:00,16.7,13.0,30.13,NW,312,1.0,1.0,85,0.00,,,0.00,Wunderground v.1.15,2013-03-04 05:46:00,
2013-03-04 00:52:00,16.6,12.6,30.14,NW,312,1.0,2.0,84,0.00,,,0.00,Wunderground v.1.15,2013-03-04 05:52:00,
2013-03-04 00:57:00,16.7,12.7,30.14,NW,312,1.0,2.0,84,0.00,,,0.00,Wunderground v.1.15,2013-03-04 05:57:00,
2013-03-04 01:02:00,16.8,12.8,30.14,NW,312,1.0,1.0,84,0.00,,,0.00,Wunderground v.1.15,2013-03-04 06:02:00,
2013-03-04 01:08:00,16.9,12.9,30.14,NW,313,1.0,1.0,84,0.00,,,0.00,Wunderground v.1.15,2013-03-04 06:08:00,
2013-03-04 01:13:00,17.1,13.1,30.15,NW,313,1.0,3.0,84,0.00,,,0.00,Wunderground v.1.15,2013-03-04 06:13:00,
2013-03-04 01:19:00,17.3,13.0,30.15,NW,313,1.0,1.0,83,0.00,,,0.00,Wunderground v.1.15,2013-03-04 06:19:00,
2013-03-04 01:24:00,17.4,13.1,30.15,NW,313,1.0,1.0,83,0.00,,,0.00,Wunderground v.1.15,2013-03-04 06:24:00,
2013-03-04 01:30:00,17.3,12.7,30.15,NW,313,1.0,1.0,82,0.00,,,0.00,Wunderground v.1.15,2013-03-04 06:30:00,
2013-03-04 01:35:00,17.4,12.8,30.15,NW,313,1.0,3.0,82,0.00,,,0.00,Wunderground v.1.15,2013-03-04 06:35:00,
2013-03-04 01:41:00,17.3,12.7,30.16,NW,313,1.0,1.0,82,0.00,,,0.00,Wunderground v.1.15,2013-03-04 06:41:00,
2013-03-04 01:46:00,17.2,12.6,30.16,NW,313,0.0,1.0,82,0.00,,,0.00,Wunderground v.1.15,2013-03-04 06:46:00,
2013-03-04 01:51:00,17.1,12.6,30.16,NW,314,1.0,1.0,82,0.00,,,0.00,Wunderground v.1.15,2013-03-04 06:51:00,
2013-03-04 01:57:00,17.0,12.5,30.16,NW,313,1.0,2.0,82,0.00,,,0.00,Wunderground v.1.15,2013-03-04 06:57:00,
2013-03-04 02:02:00,16.9,12.4,30.16,NW,313,0.0,1.0,82,0.00,,,0.00,Wunderground v.1.15,2013-03-04 07:02:00,
2013-03-04 02:08:00,16.7,12.2,30.16,NW,313,0.0,1.0,82,0.00,,,0.00,Wunderground v.1.15,2013-03-04 07:08:00,
2013-03-04 02:13:00,16.5,12.0,30.16,NW,313,0.0,0.0,82,0.00,,,0.00,Wunderground v.1.15,2013-03-04 07:13:00,
2013-03-04 02:19:00,16.4,11.9,30.15,NW,313,0.0,0.0,82,0.00,,,0.00,Wunderground v.1.15,2013-03-04 07:19:00,
2013-03-04 02:24:00,16.2,11.7,30.15,NW,313,0.0,0.0,82,0.00,,,0.00,Wunderground v.1.15,2013-03-04 07:24:00,
2013-03-04 02:30:00,15.9,11.4,30.15,NW,313,0.0,0.0,82,0.00,,,0.00,Wunderground v.1.15,2013-03-04 07:30:00,
2013-03-04 02:35:00,15.5,11.0,30.15,NW,313,0.0,0.0,82,0.00,,,0.00,Wunderground v.1.15,2013-03-04 07:35:00,
2013-03-04 02:41:00,15.1,10.6,30.15,NW,313,0.0,0.0,82,0.00,,,0.00,Wunderground v.1.15,2013-03-04 07:41:00,
2013-03-04 02:46:00,14.8,10.6,30.15,NW,313,0.0,0.0,83,0.00,,,0.00,Wunderground v.1.15,2013-03-04 07:46:00,
2013-03-04 02:51:00,14.6,10.6,30.14,NW,313,0.0,0.0,84,0.00,,,0.00,Wunderground v.1.15,2013-03-04 07:51:00,
2013-03-04 02:56:00,14.3,10.4,30.14,NW,313,0.0,0.0,84,0.00,,,0.00,Wunderground v.1.15,2013-03-04 07:56:00,
2013-03-04 03:02:00,14.0,10.1,30.14,NW,313,0.0,0.0,84,0.00,,,0.00,Wunderground v.1.15,2013-03-04 08:02:00,
2013-03-04 03:08:00,13.5,9.6,30.14,NW,313,0.0,0.0,84,0.00,,,0.00,Wunderground v.1.15,2013-03-04 08:08:00,
2013-03-04 03:13:00,13.2,9.5,30.14,NW,313,0.0,0.0,85,0.00,,,0.00,Wunderground v.1.15,2013-03-04 08:13:00,
2013-03-04 03:19:00,13.0,9.3,30.14,NW,313,0.0,0.0,85,0.00,,,0.00,Wunderground v.1.15,2013-03-04 08:19:00,
2013-03-04 03:24:00,12.6,8.9,30.14,NW,313,0.0,0.0,85,0.00,,,0.00,Wunderground v.1.15,2013-03-04 08:24:00,
2013-03-04 03:29:00,12.3,8.9,30.14,NW,313,0.0,0.0,86,0.00,,,0.00,Wunderground v.1.15,2013-03-04 08:29:00,
2013-03-04 03:35:00,12.0,8.6,30.14,NW,313,0.0,0.0,86,0.00,,,0.00,Wunderground v.1.15,2013-03-04 08:35:00,
2013-03-04 03:40:00,11.7,8.3,30.15,NW,313,0.0,0.0,86,0.00,,,0.00,Wunderground v.1.15,2013-03-04 08:40:00,
2013-03-04 03:46:00,11.4,8.3,30.15,NW,313,0.0,0.0,87,0.00,,,0.00,Wunderground v.1.15,2013-03-04 08:46:00,
2013-03-04 03:51:00,11.3,8.2,30.15,NW,313,0.0,0.0,87,0.00,,,0.00,Wunderground v.1.15,2013-03-04 08:51:00,
2013-03-04 03:56:00,11.1,8.2,30.15,NW,313,0.0,0.0,88,0.00,,,0.00,Wunderground v.1.15,2013-03-04 08:56:00,
2013-03-04 04:02:00,10.9,8.0,30.15,NW,313,0.0,0.0,88,0.00,,,0.00,Wunderground v.1.15,2013-03-04 09:02:00,
2013-03-04 04:08:00,10.8,7.9,30.15,NW,313,0.0,0.0,88,0.00,,,0.00,Wunderground v.1.15,2013-03-04 09:08:00,
2013-03-04 04:14:00,10.7,7.8,30.15,NW,313,0.0,0.0,88,0.00,,,0.00,Wunderground v.1.15,2013-03-04 09:14:00,
2013-03-04 04:19:00,10.6,7.7,30.15,NW,313,0.0,0.0,88,0.00,,,0.00,Wunderground v.1.15,2013-03-04 09:19:00,
2013-03-04 04:24:00,10.5,7.6,30.15,NW,313,0.0,0.0,88,0.00,,,0.00,Wunderground v.1.15,2013-03-04 09:24:00,
2013-03-04 04:30:00,10.3,7.5,30.16,NW,313,0.0,0.0,88,0.00,,,0.00,Wunderground v.1.15,2013-03-04 09:30:00,
2013-03-04 04:35:00,10.3,7.7,30.15,NW,313,0.0,0.0,89,0.00,,,0.00,Wunderground v.1.15,2013-03-04 09:35:00,
2013-03-04 04:41:00,10.1,7.3,30.16,NW,313,0.0,0.0,88,0.00,,,0.00,Wunderground v.1.15,2013-03-04 09:41:00,
2013-03-04 04:46:00,10.0,7.4,30.16,NW,313,0.0,0.0,89,0.00,,,0.00,Wunderground v.1.15,2013-03-04 09:46:00,
2013-03-04 04:51:00,9.9,7.3,30.16,NW,313,0.0,0.0,89,0.00,,,0.00,Wunderground v.1.15,2013-03-04 09:51:00,
2013-03-04 04:56:00,9.9,7.3,30.16,NW,313,0.0,0.0,89,0.00,,,0.00,Wunderground v.1.15,2013-03-04 09:56:00,
2013-03-04 05:02:00,9.6,7.0,30.16,NW,313,0.0,0.0,89,0.00,,,0.00,Wunderground v.1.15,2013-03-04 10:02:00,
2013-03-04 05:08:00,9.5,6.9,30.17,NW,313,0.0,0.0,89,0.00,,,0.00,Wunderground v.1.15,2013-03-04 10:08:00,
2013-03-04 05:13:00,9.4,6.8,30.17,NW,313,0.0,0.0,89,0.00,,,0.00,Wunderground v.1.15,2013-03-04 10:13:00,
2013-03-04 05:19:00,9.2,6.6,30.17,NW,313,0.0,0.0,89,0.00,,,0.00,Wunderground v.1.15,2013-03-04 10:19:00,
2013-03-04 05:25:00,9.1,6.5,30.18,NW,313,0.0,0.0,89,0.00,,,0.00,Wunderground v.1.15,2013-03-04 10:25:00,
2013-03-04 05:30:00,9.1,6.5,30.18,NW,313,0.0,0.0,89,0.00,,,0.00,Wunderground v.1.15,2013-03-04 10:30:00,
2013-03-04 05:36:00,9.2,6.6,30.18,NW,313,0.0,0.0,89,0.00,,,0.00,Wunderground v.1.15,2013-03-04 10:36:00,
2013-03-04 05:41:00,9.4,7.1,30.19,NW,313,0.0,0.0,90,0.00,,,0.00,Wunderground v.1.15,2013-03-04 10:41:00,
2013-03-04 05:47:00,9.4,7.1,30.19,NW,313,0.0,0.0,90,0.00,,,0.00,Wunderground v.1.15,2013-03-04 10:47:00,
2013-03-04 05:52:00,9.5,7.2,30.19,NW,313,0.0,0.0,90,0.00,,,0.00,Wunderground v.1.15,2013-03-04 10:52:00,
2013-03-04 05:58:00,9.7,7.4,30.20,NW,313,0.0,1.0,90,0.00,,,0.00,Wunderground v.1.15,2013-03-04 10:58:00,
2013-03-04 06:03:00,9.8,7.5,30.19,NW,313,1.0,1.0,90,0.00,,,0.00,Wunderground v.1.15,2013-03-04 11:03:00,
2013-03-04 06:09:00,9.9,7.6,30.20,NW,313,0.0,0.0,90,0.00,,,0.00,Wunderground v.1.15,2013-03-04 11:09:00,
2013-03-04 06:14:00,9.9,7.6,30.20,NW,313,0.0,0.0,90,0.00,,,0.00,Wunderground v.1.15,2013-03-04 11:14:00,
2013-03-04 06:20:00,9.9,7.6,30.20,NW,313,0.0,0.0,90,0.00,,,0.00,Wunderground v.1.15,2013-03-04 11:20:00,
2013-03-04 06:25:00,9.9,7.3,30.20,NW,313,0.0,0.0,89,0.00,,,0.00,Wunderground v.1.15,2013-03-04 11:25:00,
2013-03-04 06:31:00,9.9,7.6,30.20,NW,313,0.0,0.0,90,0.00,,,0.00,Wunderground v.1.15,2013-03-04 11:31:00,
2013-03-04 06:38:00,9.9,7.6,30.19,NW,313,0.0,0.0,90,0.00,,,0.00,Wunderground v.1.15,2013-03-04 11:38:00,
2013-03-04 06:44:00,9.8,7.5,30.20,NW,313,0.0,0.0,90,0.00,,,0.00,Wunderground v.1.15,2013-03-04 11:44:00,
2013-03-04 06:49:00,9.5,6.9,30.20,NW,313,0.0,0.0,89,0.00,,,0.00,Wunderground v.1.15,2013-03-04 11:49:00,
2013-03-04 06:54:00,9.4,6.8,30.20,NW,313,0.0,0.0,89,0.00,,,0.00,Wunderground v.1.15,2013-03-04 11:54:00,
2013-03-04 07:00:00,9.0,6.4,30.20,NW,313,0.0,0.0,89,0.00,,,0.00,Wunderground v.1.15,2013-03-04 12:00:00,
2013-03-04 07:05:00,8.9,6.3,30.20,NW,313,0.0,0.0,89,0.00,,,0.00,Wunderground v.1.15,2013-03-04 12:05:00,
2013-03-04 07:11:00,8.7,6.1,30.20,NW,313,0.0,0.0,89,0.00,,,0.00,Wunderground v.1.15,2013-03-04 12:11:00,
2013-03-04 07:16:00,8.6,6.0,30.20,NW,313,0.0,0.0,89,0.00,,,0.00,Wunderground v.1.15,2013-03-04 12:16:00,
2013-03-04 07:22:00,8.5,5.9,30.20,NW,313,0.0,0.0,89,0.00,,,0.00,Wunderground v.1.15,2013-03-04 12:22:00,
2013-03-04 07:28:00,8.6,6.0,30.20,NW,313,0.0,0.0,89,0.00,,,0.00,Wunderground v.1.15,2013-03-04 12:28:00,
2013-03-04 07:33:00,8.8,6.5,30.20,NW,313,0.0,0.0,90,0.00,,,0.00,Wunderground v.1.15,2013-03-04 12:33:00,
2013-03-04 07:38:00,9.1,6.8,30.20,NW,313,0.0,0.0,90,0.00,,,0.00,Wunderground v.1.15,2013-03-04 12:38:00,
2013-03-04 07:43:00,9.6,7.5,30.20,NW,313,0.0,1.0,91,0.00,,,0.00,Wunderground v.1.15,2013-03-04 12:43:00,
2013-03-04 07:49:00,10.3,8.2,30.20,NW,313,0.0,0.0,91,0.00,,,0.00,Wunderground v.1.15,2013-03-04 12:49:00,
2013-03-04 07:54:00,10.9,8.8,30.20,NW,313,0.0,0.0,91,0.00,,,0.00,Wunderground v.1.15,2013-03-04 12:54:00,
2013-03-04 08:00:00,11.9,10.0,30.21,NW,313,1.0,1.0,92,0.00,,,0.00,Wunderground v.1.15,2013-03-04 13:00:00,
2013-03-04 08:05:00,12.5,10.4,30.21,NW,313,1.0,2.0,91,0.00,,,0.00,Wunderground v.1.15,2013-03-04 13:05:00,
2013-03-04 08:11:00,13.1,11.0,30.21,NW,319,1.0,1.0,91,0.00,,,0.00,Wunderground v.1.15,2013-03-04 13:11:00,
2013-03-04 08:16:00,13.3,11.2,30.21,NW,319,1.0,2.0,91,0.00,,,0.00,Wunderground v.1.15,2013-03-04 13:16:00,
2013-03-04 08:22:00,13.6,11.2,30.21,NW,319,1.0,2.0,90,0.00,,,0.00,Wunderground v.1.15,2013-03-04 13:22:00,
2013-03-04 08:28:00,13.9,11.5,30.21,NW,319,1.0,3.0,90,0.00,,,0.00,Wunderground v.1.15,2013-03-04 13:28:00,
2013-03-04 08:34:00,14.1,11.7,30.21,NNW,348,2.0,4.0,90,0.00,,,0.00,Wunderground v.1.15,2013-03-04 13:34:00,
2013-03-04 08:39:00,14.3,11.9,30.21,NNW,344,2.0,2.0,90,0.00,,,0.00,Wunderground v.1.15,2013-03-04 13:39:00,
2013-03-04 08:45:00,14.7,12.0,30.21,NNW,344,1.0,2.0,89,0.00,,,0.00,Wunderground v.1.15,2013-03-04 13:45:00,
2013-03-04 08:50:00,15.1,12.4,30.21,NNW,344,1.0,3.0,89,0.00,,,0.00,Wunderground v.1.15,2013-03-04 13:50:00,
2013-03-04 08:55:00,15.5,12.8,30.21,NNW,344,1.0,3.0,89,0.00,,,0.00,Wunderground v.1.15,2013-03-04 13:55:00,
2013-03-04 09:00:00,15.9,13.2,30.22,NNW,344,1.0,2.0,89,0.00,,,0.00,Wunderground v.1.15,2013-03-04 14:00:00,
2013-03-04 09:06:00,16.2,13.3,30.22,NNW,344,1.0,2.0,88,0.00,,,0.00,Wunderground v.1.15,2013-03-04 14:06:00,
2013-03-04 09:12:00,16.6,13.4,30.22,NNW,344,1.0,3.0,87,0.00,,,0.00,Wunderground v.1.15,2013-03-04 14:12:00,
2013-03-04 09:17:00,17.1,13.9,30.22,North,350,2.0,3.0,87,0.00,,,0.00,Wunderground v.1.15,2013-03-04 14:17:00,
2013-03-04 09:23:00,17.6,14.1,30.22,North,355,2.0,3.0,86,0.00,,,0.00,Wunderground v.1.15,2013-03-04 14:23:00,
2013-03-04 09:28:00,18.0,14.3,30.22,North,355,2.0,3.0,85,0.00,,,0.00,Wunderground v.1.15,2013-03-04 14:28:00,
2013-03-04 09:33:00,18.4,14.4,30.21,North,355,2.0,4.0,84,0.00,,,0.00,Wunderground v.1.15,2013-03-04 14:33:00,
2013-03-04 09:39:00,18.5,14.2,30.22,NNE,15,3.0,5.0,83,0.00,,,0.00,Wunderground v.1.15,2013-03-04 14:39:00,
2013-03-04 09:44:00,18.8,14.5,30.22,NW,322,3.0,5.0,83,0.00,,,0.00,Wunderground v.1.15,2013-03-04 14:44:00,
2013-03-04 09:49:00,19.1,14.8,30.22,NNW,341,2.0,2.0,83,0.00,,,0.00,Wunderground v.1.15,2013-03-04 14:49:00,
2013-03-04 09:54:00,19.5,14.6,30.21,North,355,2.0,4.0,81,0.00,,,0.00,Wunderground v.1.15,2013-03-04 14:54:00,
2013-03-04 10:00:00,19.7,14.8,30.21,North,5,3.0,4.0,81,0.00,,,0.00,Wunderground v.1.15,2013-03-04 15:00:00,
2013-03-04 10:06:00,20.0,15.1,30.21,NNE,22,4.0,6.0,81,0.00,,,0.00,Wunderground v.1.15,2013-03-04 15:06:00,
2013-03-04 10:12:00,20.4,15.2,30.21,NNW,340,3.0,5.0,80,0.00,,,0.00,Wunderground v.1.15,2013-03-04 15:12:00,
2013-03-04 10:17:00,20.8,15.6,30.21,North,360,3.0,5.0,80,0.00,,,0.00,Wunderground v.1.15,2013-03-04 15:17:00,
2013-03-04 10:22:00,20.9,15.4,30.21,North,360,3.0,4.0,79,0.00,,,0.00,Wunderground v.1.15,2013-03-04 15:22:00,
2013-03-04 10:28:00,21.3,15.8,30.21,North,11,2.0,4.0,79,0.00,,,0.00,Wunderground v.1.15,2013-03-04 15:28:00,
2013-03-04 10:33:00,21.6,15.8,30.21,North,349,3.0,6.0,78,0.00,,,0.00,Wunderground v.1.15,2013-03-04 15:33:00,
2013-03-04 10:39:00,21.7,15.9,30.21,North,355,4.0,4.0,78,0.00,,,0.00,Wunderground v.1.15,2013-03-04 15:39:00,
2013-03-04 10:44:00,21.8,16.0,30.21,NNW,336,3.0,4.0,78,0.00,,,0.00,Wunderground v.1.15,2013-03-04 15:44:00,
2013-03-04 10:49:00,22.4,16.6,30.20,NE,36,3.0,4.0,78,0.00,,,0.00,Wunderground v.1.15,2013-03-04 15:49:00,
2013-03-04 10:55:00,22.8,16.7,30.20,North,360,3.0,5.0,77,0.00,,,0.00,Wunderground v.1.15,2013-03-04 15:55:00,
2013-03-04 11:00:00,23.2,17.1,30.21,NNE,30,3.0,4.0,77,0.00,,,0.00,Wunderground v.1.15,2013-03-04 16:00:00,
2013-03-04 11:05:00,23.3,16.9,30.21,WNW,298,3.0,4.0,76,0.00,,,0.00,Wunderground v.1.15,2013-03-04 16:05:00,
2013-03-04 11:12:00,23.5,17.0,30.20,NNW,339,2.0,4.0,76,0.00,,,0.00,Wunderground v.1.15,2013-03-04 16:12:00,
2013-03-04 11:18:00,23.4,16.6,30.21,North,360,4.0,5.0,75,0.00,,,0.00,Wunderground v.1.15,2013-03-04 16:18:00,
2013-03-04 11:23:00,23.4,16.6,30.21,NW,324,4.0,4.0,75,0.00,,,0.00,Wunderground v.1.15,2013-03-04 16:23:00,
2013-03-04 11:29:00,23.7,16.9,30.21,North,360,3.0,3.0,75,0.00,,,0.00,Wunderground v.1.15,2013-03-04 16:29:00,
2013-03-04 11:35:00,23.9,16.8,30.21,NNW,346,4.0,6.0,74,0.00,,,0.00,Wunderground v.1.15,2013-03-04 16:35:00,
2013-03-04 11:40:00,24.0,16.9,30.21,North,349,3.0,3.0,74,0.00,,,0.00,Wunderground v.1.15,2013-03-04 16:40:00,
2013-03-04 11:46:00,24.3,17.5,30.21,North,5,3.0,7.0,75,0.00,,,0.00,Wunderground v.1.15,2013-03-04 16:46:00,
2013-03-04 11:51:00,24.7,17.6,30.21,West,274,2.0,3.0,74,0.00,,,0.00,Wunderground v.1.15,2013-03-04 16:51:00,
2013-03-04 11:57:00,25.1,17.7,30.20,WNW,297,1.0,3.0,73,0.00,,,0.00,Wunderground v.1.15,2013-03-04 16:57:00,
2013-03-04 12:03:00,25.6,17.5,30.20,NNE,22,1.0,5.0,71,0.00,,,0.00,Wunderground v.1.15,2013-03-04 17:03:00,
2013-03-04 12:08:00,25.6,17.8,30.20,North,350,3.0,5.0,72,0.00,,,0.00,Wunderground v.1.15,2013-03-04 17:08:00,
2013-03-04 12:14:00,25.6,17.2,30.21,West,267,3.0,6.0,70,0.00,,,0.00,Wunderground v.1.15,2013-03-04 17:14:00,
2013-03-04 12:20:00,25.7,17.6,30.21,North,360,3.0,3.0,71,0.00,,,0.00,Wunderground v.1.15,2013-03-04 17:20:00,
2013-03-04 12:25:00,26.0,17.2,30.20,NNW,338,2.0,4.0,69,0.00,,,0.00,Wunderground v.1.15,2013-03-04 17:25:00,
2013-03-04 12:31:00,26.2,17.4,30.20,NNW,339,2.0,4.0,69,0.00,,,0.00,Wunderground v.1.15,2013-03-04 17:31:00,
2013-03-04 12:36:00,26.4,17.3,30.20,NNW,348,2.0,4.0,68,0.00,,,0.00,Wunderground v.1.15,2013-03-04 17:36:00,
2013-03-04 12:42:00,26.6,17.8,30.20,NW,304,2.0,2.0,69,0.00,,,0.00,Wunderground v.1.15,2013-03-04 17:42:00,
2013-03-04 12:48:00,26.6,17.5,30.19,NW,319,3.0,4.0,68,0.00,,,0.00,Wunderground v.1.15,2013-03-04 17:48:00,
2013-03-04 12:53:00,26.7,17.9,30.19,West,271,2.0,5.0,69,0.00,,,0.00,Wunderground v.1.15,2013-03-04 17:53:00,
2013-03-04 12:58:00,27.1,17.9,30.19,NNE,27,2.0,5.0,68,0.00,,,0.00,Wunderground v.1.15,2013-03-04 17:58:00,
2013-03-04 13:04:00,27.1,17.9,30.18,NNE,30,4.0,6.0,68,0.00,,,0.00,Wunderground v.1.15,2013-03-04 18:04:00,
2013-03-04 13:11:00,27.1,17.6,30.18,NNE,19,5.0,6.0,67,0.00,,,0.00,Wunderground v.1.15,2013-03-04 18:11:00,
2013-03-04 13:16:00,27.1,17.6,30.18,NNE,17,5.0,7.0,67,0.00,,,0.00,Wunderground v.1.15,2013-03-04 18:16:00,
2013-03-04 13:22:00,27.3,17.4,30.18,NE,34,5.0,6.0,66,0.00,,,0.00,Wunderground v.1.15,2013-03-04 18:22:00,
2013-03-04 13:28:00,27.4,17.2,30.18,NNE,16,5.0,7.0,65,0.00,,,0.00,Wunderground v.1.15,2013-03-04 18:28:00,
2013-03-04 13:30:00,27.5,17.6,30.18,NW,321,4.0,4.0,66,0.00,,,0.00,Wunderground v.1.15,2013-03-04 18:30:00,
2013-03-04 13:31:00,27.5,17.3,30.18,NW,304,4.0,4.0,65,0.00,,,0.00,Wunderground v.1.15,2013-03-04 18:31:00,
2013-03-04 13:35:00,27.5,17.3,30.18,NW,310,3.0,4.0,65,0.00,,,0.00,Wunderground v.1.15,2013-03-04 18:35:00,
2013-03-04 13:40:00,27.6,17.0,30.18,NNE,32,4.0,8.0,64,0.00,,,0.00,Wunderground v.1.15,2013-03-04 18:40:00,
2013-03-04 13:46:00,28.0,16.6,30.18,NNE,29,5.0,8.0,62,0.00,,,0.00,Wunderground v.1.15,2013-03-04 18:46:00,
2013-03-04 13:52:00,28.3,17.7,30.17,NNW,330,3.0,4.0,64,0.00,,,0.00,Wunderground v.1.15,2013-03-04 18:52:00,
2013-03-04 13:58:00,28.5,17.5,30.17,North,360,2.0,8.0,63,0.00,,,0.00,Wunderground v.1.15,2013-03-04 18:58:00,
2013-03-04 14:03:00,28.7,17.3,30.17,NNW,344,3.0,3.0,62,0.00,,,0.00,Wunderground v.1.15,2013-03-04 19:03:00,
2013-03-04 14:09:00,28.5,17.5,30.17,NNE,19,4.0,4.0,63,0.00,,,0.00,Wunderground v.1.15,2013-03-04 19:09:00,
2013-03-04 14:14:00,28.7,17.7,30.17,NNW,340,5.0,6.0,63,0.00,,,0.00,Wunderground v.1.15,2013-03-04 19:14:00,
2013-03-04 14:20:00,28.6,17.6,30.17,NW,313,3.0,4.0,63,0.00,,,0.00,Wunderground v.1.15,2013-03-04 19:20:00,
2013-03-04 14:25:00,28.9,17.9,30.17,NW,311,3.0,4.0,63,0.00,,,0.01,Wunderground v.1.15,2013-03-04 19:25:00,
2013-03-04 14:31:00,29.4,18.0,30.17,NNE,22,2.0,3.0,62,0.00,,,0.01,Wunderground v.1.15,2013-03-04 19:31:00,
2013-03-04 14:37:00,29.0,16.8,30.17,NNW,337,3.0,6.0,60,0.00,,,0.01,Wunderground v.1.15,2013-03-04 19:37:00,
2013-03-04 14:42:00,29.0,17.2,30.17,NNW,337,4.0,4.0,61,0.00,,,0.01,Wunderground v.1.15,2013-03-04 19:42:00,
2013-03-04 14:48:00,29.4,17.6,30.16,ENE,57,3.0,6.0,61,0.00,,,0.01,Wunderground v.1.15,2013-03-04 19:48:00,
2013-03-04 14:54:00,29.9,17.3,30.17,North,355,2.0,5.0,59,0.00,,,0.01,Wunderground v.1.15,2013-03-04 19:54:00,
2013-03-04 15:00:00,29.8,16.8,30.16,NNE,21,2.0,7.0,58,0.00,,,0.01,Wunderground v.1.15,2013-03-04 20:00:00,
2013-03-04 15:05:00,29.5,16.5,30.16,NNE,20,4.0,7.0,58,0.00,,,0.01,Wunderground v.1.15,2013-03-04 20:05:00,
2013-03-04 15:11:00,29.8,17.2,30.16,NNE,22,4.0,5.0,59,0.00,,,0.01,Wunderground v.1.15,2013-03-04 20:11:00,
2013-03-04 15:16:00,30.2,17.6,30.16,NNE,25,2.0,5.0,59,0.00,,,0.01,Wunderground v.1.15,2013-03-04 20:16:00,
2013-03-04 15:22:00,30.1,17.1,30.16,NNE,18,3.0,4.0,58,0.00,,,0.01,Wunderground v.1.15,2013-03-04 20:22:00,
2013-03-04 15:27:00,30.5,17.5,30.16,NNE,19,2.0,4.0,58,0.00,,,0.01,Wunderground v.1.15,2013-03-04 20:27:00,
2013-03-04 15:33:00,30.5,17.5,30.16,North,360,2.0,5.0,58,0.00,,,0.01,Wunderground v.1.15,2013-03-04 20:33:00,
2013-03-04 15:39:00,30.4,17.8,30.16,NE,53,3.0,3.0,59,0.00,,,0.01,Wunderground v.1.15,2013-03-04 20:39:00,
2013-03-04 15:45:00,30.5,17.5,30.16,NNE,24,2.0,4.0,58,0.00,,,0.01,Wunderground v.1.15,2013-03-04 20:45:00,
2013-03-04 15:50:00,30.6,17.6,30.16,NE,55,2.0,2.0,58,0.00,,,0.01,Wunderground v.1.15,2013-03-04 20:50:00,
2013-03-04 15:55:00,30.8,17.3,30.16,NNE,24,2.0,5.0,57,0.00,,,0.01,Wunderground v.1.15,2013-03-04 20:55:00,
2013-03-04 16:00:00,30.5,16.7,30.16,North,355,3.0,6.0,56,0.00,,,0.02,Wunderground v.1.15,2013-03-04 21:00:00,
2013-03-04 16:07:00,30.2,17.2,30.16,NE,47,2.0,6.0,58,0.00,,,0.02,Wunderground v.1.15,2013-03-04 21:07:00,
2013-03-04 16:12:00,30.3,16.9,30.16,NNE,13,2.0,5.0,57,0.00,,,0.02,Wunderground v.1.15,2013-03-04 21:12:00,
2013-03-04 16:18:00,30.0,17.0,30.16,NNE,15,3.0,3.0,58,0.00,,,0.02,Wunderground v.1.15,2013-03-04 21:18:00,
2013-03-04 16:23:00,29.9,16.9,30.16,NNE,21,2.0,3.0,58,0.00,,,0.02,Wunderground v.1.15,2013-03-04 21:23:00,
2013-03-04 16:29:00,30.1,17.1,30.17,NNE,28,3.0,3.0,58,0.00,,,0.02,Wunderground v.1.15,2013-03-04 21:29:00,
2013-03-04 16:34:00,30.1,16.7,30.17,NNE,28,3.0,4.0,57,0.00,,,0.02,Wunderground v.1.15,2013-03-04 21:34:00,
2013-03-04 16:39:00,30.1,16.3,30.17,NW,326,2.0,2.0,56,0.00,,,0.02,Wunderground v.1.15,2013-03-04 21:39:00,
2013-03-04 16:44:00,30.2,15.5,30.17,North,349,2.0,4.0,54,0.00,,,0.02,Wunderground v.1.15,2013-03-04 21:44:00,
2013-03-04 16:49:00,30.1,15.9,30.17,North,349,2.0,2.0,55,0.00,,,0.02,Wunderground v.1.15,2013-03-04 21:49:00,
2013-03-04 16:55:00,29.9,16.5,30.17,North,350,1.0,4.0,57,0.00,,,0.02,Wunderground v.1.15,2013-03-04 21:55:00,
2013-03-04 17:00:00,30.3,16.5,30.17,North,350,1.0,3.0,56,0.00,,,0.02,Wunderground v.1.15,2013-03-04 22:00:00,
2013-03-04 17:06:00,30.4,16.1,30.17,North,350,1.0,3.0,55,0.00,,,0.02,Wunderground v.1.15,2013-03-04 22:06:00,
2013-03-04 17:11:00,30.5,16.2,30.17,North,349,1.0,3.0,55,0.00,,,0.02,Wunderground v.1.15,2013-03-04 22:11:00,
2013-03-04 17:17:00,30.8,16.5,30.16,North,355,1.0,3.0,55,0.00,,,0.02,Wunderground v.1.15,2013-03-04 22:17:00,
2013-03-04 17:23:00,31.0,16.7,30.16,NNE,29,2.0,4.0,55,0.00,,,0.02,Wunderground v.1.15,2013-03-04 22:23:00,
2013-03-04 17:37:00,30.0,16.2,30.16,NE,34,4.0,4.0,56,0.00,,,0.02,Wunderground v.1.15,2013-03-04 22:37:00,
2013-03-04 17:42:00,29.7,15.5,30.16,NE,34,4.0,4.0,55,0.00,,,0.02,Wunderground v.1.15,2013-03-04 22:42:00,
2013-03-04 17:48:00,29.3,15.5,30.16,NNE,32,3.0,4.0,56,0.00,,,0.02,Wunderground v.1.15,2013-03-04 22:48:00,
2013-03-04 17:54:00,28.8,15.5,30.16,NNE,32,2.0,3.0,57,0.00,,,0.02,Wunderground v.1.15,2013-03-04 22:54:00,
2013-03-04 18:00:00,28.5,15.2,30.16,NNE,32,2.0,2.0,57,0.00,,,0.02,Wunderground v.1.15,2013-03-04 23:00:00,
2013-03-04 18:06:00,28.2,15.3,30.16,NNE,32,1.0,2.0,58,0.00,,,0.02,Wunderground v.1.15,2013-03-04 23:06:00,
2013-03-04 18:12:00,27.9,15.0,30.16,NNE,32,0.0,0.0,58,0.00,,,0.02,Wunderground v.1.15,2013-03-04 23:12:00,
2013-03-04 18:18:00,27.6,15.1,30.16,NNE,32,0.0,0.0,59,0.00,,,0.02,Wunderground v.1.15,2013-03-04 23:18:00,
2013-03-04 18:23:00,27.2,15.1,30.16,NNE,32,0.0,0.0,60,0.00,,,0.02,Wunderground v.1.15,2013-03-04 23:23:00,
2013-03-04 18:29:00,26.8,15.5,30.16,NNE,32,0.0,0.0,62,0.00,,,0.02,Wunderground v.1.15,2013-03-04 23:29:00,
2013-03-04 18:34:00,26.4,14.8,30.16,NNE,32,0.0,0.0,61,0.00,,,0.02,Wunderground v.1.15,2013-03-04 23:34:00,
2013-03-04 18:39:00,26.1,14.8,30.15,NNE,32,0.0,0.0,62,0.00,,,0.02,Wunderground v.1.15,2013-03-04 23:39:00,
2013-03-04 18:45:00,25.6,14.7,30.16,NNE,32,0.0,0.0,63,0.00,,,0.02,Wunderground v.1.15,2013-03-04 23:45:00,
2013-03-04 18:51:00,25.2,14.7,30.16,NNE,32,0.0,0.0,64,0.00,,,0.02,Wunderground v.1.15,2013-03-04 23:51:00,
2013-03-04 18:56:00,25.0,14.5,30.16,NNE,32,0.0,0.0,64,0.00,,,0.02,Wunderground v.1.15,2013-03-04 23:56:00,
2013-03-04 19:02:00,24.6,14.5,30.16,NNE,32,0.0,0.0,65,0.00,,,0.02,Wunderground v.1.15,2013-03-05 00:02:00,
2013-03-04 19:08:00,24.2,14.5,30.16,NNE,32,0.0,0.0,66,0.00,,,0.02,Wunderground v.1.15,2013-03-05 00:08:00,
2013-03-04 19:14:00,23.8,14.1,30.16,NNE,32,0.0,0.0,66,0.00,,,0.02,Wunderground v.1.15,2013-03-05 00:14:00,
2013-03-04 19:19:00,23.4,14.0,30.16,NNE,32,0.0,0.0,67,0.00,,,0.02,Wunderground v.1.15,2013-03-05 00:19:00,
2013-03-04 19:24:00,23.0,14.0,30.16,NNE,32,0.0,0.0,68,0.00,,,0.02,Wunderground v.1.15,2013-03-05 00:24:00,
2013-03-04 19:30:00,22.6,14.0,30.16,NNE,32,0.0,0.0,69,0.00,,,0.02,Wunderground v.1.15,2013-03-05 00:30:00,
2013-03-04 19:35:00,22.4,14.1,30.16,NNE,32,0.0,0.0,70,0.00,,,0.02,Wunderground v.1.15,2013-03-05 00:35:00,
2013-03-04 19:41:00,22.2,13.9,30.16,NNE,32,0.0,0.0,70,0.00,,,0.02,Wunderground v.1.15,2013-03-05 00:41:00,
2013-03-04 19:46:00,22.0,14.0,30.16,NNE,32,0.0,0.0,71,0.00,,,0.02,Wunderground v.1.15,2013-03-05 00:46:00,
2013-03-04 19:51:00,21.8,13.8,30.16,NNE,32,0.0,0.0,71,0.00,,,0.02,Wunderground v.1.15,2013-03-05 00:51:00,
2013-03-04 19:57:00,21.6,14.0,30.16,NNE,32,0.0,0.0,72,0.00,,,0.02,Wunderground v.1.15,2013-03-05 00:57:00,
2013-03-04 20:02:00,21.3,13.7,30.16,NNE,32,0.0,0.0,72,0.00,,,0.02,Wunderground v.1.15,2013-03-05 01:02:00,
2013-03-04 20:08:00,21.0,13.7,30.17,NNE,32,0.0,0.0,73,0.00,,,0.02,Wunderground v.1.15,2013-03-05 01:08:00,
2013-03-04 20:14:00,20.6,13.6,30.16,NNE,32,0.0,0.0,74,0.00,,,0.02,Wunderground v.1.15,2013-03-05 01:14:00,
2013-03-04 20:20:00,20.3,13.6,30.17,NNE,32,0.0,0.0,75,0.00,,,0.02,Wunderground v.1.15,2013-03-05 01:20:00,
2013-03-04 20:26:00,20.0,13.6,30.17,NNE,32,0.0,0.0,76,0.00,,,0.02,Wunderground v.1.15,2013-03-05 01:26:00,
2013-03-04 20:32:00,19.7,13.7,30.17,NNE,32,0.0,0.0,77,0.00,,,0.02,Wunderground v.1.15,2013-03-05 01:32:00,
2013-03-04 20:38:00,19.7,14.0,30.17,NNE,32,0.0,0.0,78,0.00,,,0.02,Wunderground v.1.15,2013-03-05 01:38:00,
2013-03-04 20:44:00,19.3,13.6,30.16,NNE,32,0.0,0.0,78,0.00,,,0.02,Wunderground v.1.15,2013-03-05 01:44:00,
2013-03-04 20:50:00,19.0,13.6,30.17,NNE,32,0.0,0.0,79,0.00,,,0.02,Wunderground v.1.15,2013-03-05 01:50:00,
2013-03-04 20:55:00,18.8,13.9,30.17,NNE,32,0.0,0.0,81,0.00,,,0.02,Wunderground v.1.15,2013-03-05 01:55:00,
2013-03-04 21:01:00,18.7,14.1,30.17,NNE,32,0.0,0.0,82,0.00,,,0.02,Wunderground v.1.15,2013-03-05 02:01:00,
2013-03-04 21:06:00,18.6,14.0,30.17,NNE,32,0.0,0.0,82,0.00,,,0.02,Wunderground v.1.15,2013-03-05 02:06:00,
2013-03-04 21:12:00,18.6,14.6,30.17,NNE,32,0.0,0.0,84,0.00,,,0.02,Wunderground v.1.15,2013-03-05 02:12:00,
2013-03-04 21:18:00,18.6,14.3,30.17,NNE,32,0.0,0.0,83,0.00,,,0.02,Wunderground v.1.15,2013-03-05 02:18:00,
2013-03-04 21:23:00,18.5,14.5,30.17,NNE,32,0.0,0.0,84,0.00,,,0.02,Wunderground v.1.15,2013-03-05 02:23:00,
2013-03-04 21:29:00,18.3,14.3,30.17,NNE,32,0.0,0.0,84,0.00,,,0.02,Wunderground v.1.15,2013-03-05 02:29:00,
2013-03-04 21:34:00,18.1,14.1,30.17,NNE,32,0.0,0.0,84,0.00,,,0.02,Wunderground v.1.15,2013-03-05 02:34:00,
2013-03-04 21:40:00,17.9,13.9,30.18,NNE,32,0.0,0.0,84,0.00,,,0.02,Wunderground v.1.15,2013-03-05 02:40:00,
2013-03-04 21:45:00,17.7,13.7,30.18,NNE,32,0.0,0.0,84,0.00,,,0.02,Wunderground v.1.15,2013-03-05 02:45:00,
2013-03-04 21:50:00,17.5,13.8,30.18,NNE,32,0.0,0.0,85,0.00,,,0.02,Wunderground v.1.15,2013-03-05 02:50:00,
2013-03-04 21:56:00,17.3,13.3,30.18,NNE,32,0.0,0.0,84,0.00,,,0.02,Wunderground v.1.15,2013-03-05 02:56:00,
2013-03-04 22:01:00,17.0,13.3,30.17,NNE,32,0.0,0.0,85,0.00,,,0.02,Wunderground v.1.15,2013-03-05 03:01:00,
2013-03-04 22:06:00,17.1,13.6,30.17,NNE,32,0.0,0.0,86,0.00,,,0.02,Wunderground v.1.15,2013-03-05 03:06:00,
2013-03-04 22:11:00,17.3,14.1,30.17,NNE,32,0.0,0.0,87,0.00,,,0.02,Wunderground v.1.15,2013-03-05 03:11:00,
2013-03-04 22:17:00,17.2,13.7,30.18,NNE,32,0.0,0.0,86,0.00,,,0.02,Wunderground v.1.15,2013-03-05 03:17:00,
2013-03-04 22:22:00,17.2,14.0,30.17,NNE,32,0.0,0.0,87,0.00,,,0.02,Wunderground v.1.15,2013-03-05 03:22:00,
2013-03-04 22:28:00,17.3,14.1,30.18,NNE,32,0.0,0.0,87,0.00,,,0.02,Wunderground v.1.15,2013-03-05 03:28:00,
2013-03-04 22:34:00,17.4,14.2,30.18,NNE,32,0.0,0.0,87,0.00,,,0.02,Wunderground v.1.15,2013-03-05 03:34:00,
2013-03-04 22:39:00,17.5,14.3,30.18,NNE,32,0.0,0.0,87,0.00,,,0.02,Wunderground v.1.15,2013-03-05 03:39:00,
2013-03-04 22:44:00,17.5,14.3,30.18,NNE,32,0.0,0.0,87,0.00,,,0.02,Wunderground v.1.15,2013-03-05 03:44:00,
2013-03-04 22:50:00,17.5,14.3,30.18,NNE,32,0.0,0.0,87,0.00,,,0.02,Wunderground v.1.15,2013-03-05 03:50:00,
2013-03-04 22:55:00,17.4,14.2,30.18,NNE,32,0.0,0.0,87,0.00,,,0.02,Wunderground v.1.15,2013-03-05 03:55:00,
2013-03-04 23:01:00,17.3,14.1,30.18,NNE,32,0.0,0.0,87,0.00,,,0.00,Wunderground v.1.15,2013-03-05 04:01:00,
2013-03-04 23:06:00,17.1,13.9,30.18,NNE,32,0.0,0.0,87,0.00,,,0.00,Wunderground v.1.15,2013-03-05 04:06:00,
2013-03-04 23:12:00,17.0,13.8,30.18,NNE,32,0.0,0.0,87,0.00,,,0.00,Wunderground v.1.15,2013-03-05 04:12:00,
2013-03-04 23:18:00,16.8,13.6,30.18,NNE,32,0.0,0.0,87,0.00,,,0.00,Wunderground v.1.15,2013-03-05 04:18:00,
2013-03-04 23:24:00,16.6,13.4,30.18,NNE,32,0.0,0.0,87,0.00,,,0.00,Wunderground v.1.15,2013-03-05 04:24:00,
2013-03-04 23:29:00,16.4,13.2,30.18,NNE,32,0.0,0.0,87,0.00,,,0.00,Wunderground v.1.15,2013-03-05 04:29:00,
2013-03-04 23:34:00,16.3,13.1,30.19,NNE,32,0.0,0.0,87,0.00,,,0.00,Wunderground v.1.15,2013-03-05 04:34:00,
2013-03-04 23:40:00,16.3,13.4,30.19,NNE,32,0.0,0.0,88,0.00,,,0.00,Wunderground v.1.15,2013-03-05 04:40:00,
2013-03-04 23:45:00,16.3,13.4,30.19,NNE,32,0.0,0.0,88,0.00,,,0.00,Wunderground v.1.15,2013-03-05 04:45:00,
2013-03-04 23:51:00,16.2,13.0,30.19,NNE,32,0.0,0.0,87,0.00,,,0.00,Wunderground v.1.15,2013-03-05 04:51:00,
2013-03-04 23:56:00,16.0,12.8,30.19,NNE,32,0.0,0.0,87,0.00,,,0.00,Wunderground v.1.15,2013-03-05 04:56:00,